createdAt,value
2023-05-09T00:20:25.400Z,18.3
2023-05-09T00:30:30.616Z,18.2
2023-05-09T00:40:36.877Z,18.2
2023-05-09T00:50:43.020Z,18.2
2023-05-09T01:21:01.621Z,18.1
2023-05-09T01:31:07.897Z,18.1
2023-05-09T01:51:20.224Z,18
2023-05-09T02:11:32.617Z,18
2023-05-09T02:21:38.826Z,17.9
2023-05-09T02:41:51.263Z,17.8
2023-05-09T02:51:56.437Z,17.7
2023-05-09T03:12:08.846Z,17.6
2023-05-09T03:22:15.051Z,17.5
2023-05-09T04:12:45.780Z,17.3
2023-05-09T04:22:52.069Z,17.3
2023-05-09T04:32:58.210Z,17.3
2023-05-09T04:53:10.546Z,17.4
2023-05-09T05:23:28.976Z,17.5
2023-05-09T05:33:34.105Z,17.6
2023-05-09T05:43:40.285Z,17.6
2023-05-09T05:53:46.395Z,17.8
2023-05-09T06:13:58.703Z,18
2023-05-09T06:24:04.893Z,18.1
2023-05-09T06:34:11.018Z,18.2
2023-05-09T06:44:17.135Z,18.3
2023-05-09T07:14:35.586Z,18.5
2023-05-09T07:24:41.717Z,18.6
2023-05-09T07:34:47.876Z,18.8
2023-05-09T07:44:53.018Z,19
2023-05-09T07:54:59.150Z,19.1
2023-05-09T08:15:11.518Z,19.3
2023-05-09T08:25:17.673Z,19.3
2023-05-09T08:45:29.949Z,19.4
2023-05-09T08:55:36.101Z,19.4
2023-05-09T09:15:48.496Z,19.5
2023-05-09T09:36:00.676Z,19.7
2023-05-09T09:46:06.812Z,19.7
2023-05-09T09:56:11.989Z,19.8
2023-05-09T10:16:24.265Z,19.8
2023-05-09T10:26:30.603Z,19.8
2023-05-09T10:36:36.672Z,19.9
2023-05-09T10:46:42.663Z,19.9
2023-05-09T10:56:48.819Z,20
2023-05-09T11:06:55.127Z,20.1
2023-05-09T11:17:01.149Z,20.4
2023-05-09T11:27:07.224Z,20.8
2023-05-09T11:37:13.542Z,21.1
2023-05-09T11:47:19.523Z,21.3
2023-05-09T12:17:38.017Z,21.2
2023-05-09T12:27:43.232Z,21.2
2023-05-09T12:37:49.228Z,21.1
2023-05-09T12:47:55.542Z,21.1
2023-05-09T12:58:01.603Z,21
2023-05-09T13:58:38.399Z,21.3
2023-05-09T14:18:49.665Z,21.2
2023-05-09T14:39:01.024Z,21.1
2023-05-09T14:59:12.282Z,20.9
2023-05-09T15:39:35.879Z,20.6
2023-05-09T15:49:41.043Z,20.5
2023-05-09T15:59:47.184Z,20.4
2023-05-09T16:30:05.606Z,20.2
2023-05-09T16:40:11.740Z,20.2
2023-05-09T16:50:17.888Z,20.1
2023-05-09T17:20:36.310Z,19.9
2023-05-09T17:30:42.445Z,19.8
2023-05-09T17:50:54.738Z,19.7
2023-05-09T18:00:59.889Z,19.6
2023-05-09T18:31:18.311Z,19.4
2023-05-09T18:41:24.572Z,19.4
2023-05-09T18:51:30.585Z,19.3
2023-05-09T19:01:36.807Z,19.2
2023-05-09T19:21:49.057Z,19.1
2023-05-09T19:31:55.384Z,19.1
2023-05-09T19:42:01.443Z,19
2023-05-09T19:52:07.749Z,19
2023-05-09T20:02:13.912Z,18.9
2023-05-09T20:12:19.055Z,18.8
2023-05-09T20:42:37.646Z,18.6
2023-05-09T20:52:43.843Z,18.6
2023-05-09T21:02:50.125Z,18.5
2023-05-09T21:23:02.446Z,18.5
2023-05-09T21:33:08.651Z,18.4
2023-05-09T21:43:14.825Z,18.4
2023-05-09T21:53:21.022Z,18.4
2023-05-09T22:03:27.349Z,18.4
2023-05-09T22:13:33.480Z,18.3
2023-05-09T22:23:38.706Z,18.2
2023-05-09T22:33:44.833Z,18.2
2023-05-09T22:43:51.039Z,18.1
2023-05-09T22:53:57.229Z,18.1
2023-05-09T23:04:03.423Z,18
2023-05-09T23:14:09.629Z,17.9
2023-05-09T23:24:15.837Z,17.9
2023-05-09T23:34:22.038Z,17.8
2023-05-09T23:44:28.228Z,17.8
2023-05-09T23:54:34.428Z,17.7
